Time;durP1;ratioP1;P1;durP2;ratioP2;P2;SDS_P1;SDS_P2;PMS_P1;PMS_P2;Temp;Humidity;BMP_temperature;BMP_pressure;BME280_temperature;BME280_humidity;BME280_pressure;Samples;Min_cycle;Max_cycle;Signal;HPM_P1;HPM_P2
2023/06/04 00:00:35;;;;;;;6.63;3.45;;;;;;;12.18;60.94;96077.72;2098395;28;20514;-59
2023/06/04 00:01:36;;;;;;;6.40;3.97;;;;;;;12.11;61.01;96072.84;2097570;28;20048;-60
2023/06/04 00:02:37;;;;;;;7.82;3.45;;;;;;;12.07;60.93;96080.88;2097416;28;20063;-60
2023/06/04 00:03:38;;;;;;;5.80;3.47;;;;;;;12.05;60.66;96075.75;2097506;28;20494;-59
2023/06/04 00:04:39;;;;;;;5.32;3.10;;;;;;;11.94;61.41;96053.81;2098272;28;20045;-60
2023/06/04 00:05:40;;;;;;;8.82;3.65;;;;;;;11.96;60.95;96073.63;2098100;28;20049;-60
2023/06/04 00:06:42;;;;;;;5.28;3.15;;;;;;;11.91;61.01;96076.47;2097571;28;20049;-60
2023/06/04 00:07:43;;;;;;;10.40;3.50;;;;;;;11.87;61.00;96076.72;2097461;28;20052;-60
2023/06/04 00:08:44;;;;;;;7.05;4.05;;;;;;;11.82;61.21;96076.06;2097509;28;20056;-60
2023/06/04 00:09:46;;;;;;;10.73;4.07;;;;;;;11.70;62.16;96060.13;2097354;28;20060;-60
2023/06/04 00:10:47;;;;;;;7.20;3.55;;;;;;;11.74;61.99;96073.00;2098033;28;20480;-59
2023/06/04 00:11:48;;;;;;;5.72;3.65;;;;;;;11.67;61.90;96059.47;2097933;28;20066;-59
2023/06/04 00:12:49;;;;;;;4.72;3.10;;;;;;;11.68;62.66;96068.94;2089257;28;20045;-59
2023/06/04 00:13:51;;;;;;;8.98;3.60;;;;;;;11.55;62.39;96053.13;2089415;28;20045;-60
2023/06/04 00:14:52;;;;;;;7.82;3.60;;;;;;;11.60;62.85;96055.47;2098138;28;20036;-60
2023/06/04 00:15:53;;;;;;;6.32;3.30;;;;;;;11.70;61.55;96062.75;2097481;28;20048;-60
2023/06/04 00:16:54;;;;;;;6.55;3.40;;;;;;;11.74;61.29;96070.41;2097779;28;20040;-60
2023/06/04 00:17:56;;;;;;;6.47;3.63;;;;;;;11.77;60.98;96067.66;2098141;28;20044;-59
2023/06/04 00:18:57;;;;;;;5.70;3.05;;;;;;;11.69;61.21;96061.06;2097940;28;20036;-59
2023/06/04 00:19:58;;;;;;;5.88;3.45;;;;;;;11.72;61.53;96069.66;2097440;28;20057;-60
2023/06/04 00:20:59;;;;;;;9.32;3.78;;;;;;;11.70;61.68;96069.72;2097279;28;20100;-60
2023/06/04 00:22:00;;;;;;;6.93;3.47;;;;;;;11.73;62.17;96072.16;2098305;28;20108;-60
2023/06/04 00:23:02;;;;;;;7.53;3.58;;;;;;;11.71;61.82;96066.22;2097531;28;20044;-60
2023/06/04 00:24:03;;;;;;;6.15;3.50;;;;;;;11.68;62.44;96069.81;2098265;28;20413;-60
2023/06/04 00:25:04;;;;;;;7.57;3.80;;;;;;;11.65;62.26;96064.75;2097685;28;20044;-60
2023/06/04 00:26:05;;;;;;;7.35;3.53;;;;;;;11.64;62.15;96070.84;2088502;28;20081;-59
2023/06/04 00:27:07;;;;;;;7.32;3.60;;;;;;;11.51;62.49;96054.19;2088717;28;20481;-60
2023/06/04 00:28:08;;;;;;;8.25;3.40;;;;;;;11.57;62.71;96069.47;2097428;28;20048;-59
2023/06/04 00:29:10;;;;;;;8.68;3.38;;;;;;;11.48;62.39;96067.34;2088880;28;20049;-59
2023/06/04 00:30:11;;;;;;;8.68;3.15;;;;;;;11.48;63.11;96077.75;2080341;28;20061;-60
2023/06/04 00:31:12;;;;;;;6.25;3.33;;;;;;;11.46;62.32;96076.97;2089217;28;20104;-57
2023/06/04 00:32:13;;;;;;;7.93;3.92;;;;;;;11.45;62.45;96067.50;2097463;28;20075;-57
2023/06/04 00:33:14;;;;;;;8.48;3.50;;;;;;;11.42;62.41;96068.50;2098233;28;20051;-57
2023/06/04 00:34:17;;;;;;;5.60;3.75;;;;;;;11.43;62.75;96074.53;2098187;28;20051;-58
2023/06/04 00:35:19;;;;;;;10.48;4.32;;;;;;;11.41;63.01;96076.34;2097287;28;20515;-57
2023/06/04 00:36:20;;;;;;;7.40;3.40;;;;;;;11.40;63.09;96072.91;2097344;28;20053;-58
2023/06/04 00:37:27;;;;;;;6.30;3.40;;;;;;;11.43;61.77;96061.53;2088346;28;20060;-57
2023/06/04 00:38:28;;;;;;;7.90;3.25;;;;;;;11.53;62.49;96067.97;2089426;28;20108;-57
2023/06/04 00:39:29;;;;;;;8.23;3.30;;;;;;;11.50;62.45;96075.91;2089030;28;20045;-57
2023/06/04 00:40:31;;;;;;;6.35;3.28;;;;;;;11.39;62.04;96050.44;2080358;28;20057;-57
2023/06/04 00:41:32;;;;;;;6.90;3.25;;;;;;;11.44;62.95;96066.66;2089385;28;20037;-58
2023/06/04 00:42:33;;;;;;;6.25;3.50;;;;;;;11.40;63.17;96064.28;2098033;28;20045;-57
2023/06/04 00:43:35;;;;;;;6.68;3.22;;;;;;;11.35;63.62;96058.47;2098059;28;20381;-57
2023/06/04 00:44:36;;;;;;;5.75;3.58;;;;;;;11.27;63.29;96051.88;2088505;28;20056;-58
2023/06/04 00:45:37;;;;;;;6.70;3.30;;;;;;;11.33;63.01;96066.31;2080168;28;20049;-58
2023/06/04 00:46:39;;;;;;;4.85;3.35;;;;;;;11.30;63.39;96063.06;2088784;28;20057;-57
2023/06/04 00:47:40;;;;;;;7.05;3.22;;;;;;;11.26;63.31;96068.41;2090181;28;20057;-57
2023/06/04 00:48:43;;;;;;;6.03;3.72;;;;;;;11.24;63.43;96066.78;2091051;28;20060;-57
2023/06/04 00:49:44;;;;;;;8.30;3.45;;;;;;;11.20;63.93;96066.09;2082089;28;20049;-58
2023/06/04 00:50:46;;;;;;;8.93;3.92;;;;;;;11.21;63.18;96067.78;2066646;28;20396;-57
2023/06/04 00:51:48;;;;;;;7.20;3.40;;;;;;;11.20;63.75;96066.09;2082604;28;20049;-58
2023/06/04 00:52:49;;;;;;;7.75;3.65;;;;;;;11.23;63.51;96070.31;2090332;28;20072;-57
2023/06/04 00:53:51;;;;;;;6.03;3.35;;;;;;;11.19;64.12;96071.38;2082753;28;20041;-57
2023/06/04 00:54:52;;;;;;;8.88;3.80;;;;;;;11.15;64.32;96068.09;2090563;28;20045;-57
2023/06/04 00:55:53;;;;;;;7.07;3.28;;;;;;;11.12;64.29;96070.84;2090739;28;20449;-58
2023/06/04 00:56:54;;;;;;;9.18;3.60;;;;;;;11.09;63.94;96070.97;2090743;28;20112;-57
2023/06/04 00:57:55;;;;;;;8.20;3.35;;;;;;;11.03;64.69;96066.06;2099558;28;20044;-57
2023/06/04 00:58:56;;;;;;;7.00;3.40;;;;;;;11.03;64.49;96074.69;2099476;28;20044;-57
2023/06/04 00:59:57;;;;;;;6.00;3.28;;;;;;;11.00;65.21;96067.06;2099032;28;20052;-57
2023/06/04 01:00:59;;;;;;;6.38;3.30;;;;;;;10.95;64.71;96069.03;2090588;28;20056;-57
2023/06/04 01:02:03;;;;;;;9.13;3.78;;;;;;;10.94;64.47;96067.34;2082263;28;20054;-57
2023/06/04 01:03:07;;;;;;;6.20;3.70;;;;;;;10.88;64.40;96054.66;2091211;28;20041;-57
2023/06/04 01:04:32;;;;;;;6.82;3.63;;;;;;;10.98;64.45;96071.47;2089939;28;20045;-57
2023/06/04 01:05:37;;;;;;;12.00;3.80;;;;;;;10.92;64.95;96060.53;2093656;28;20106;-57
2023/06/04 01:06:39;;;;;;;6.60;3.30;;;;;;;10.94;65.48;96072.53;2090642;28;20048;-57
2023/06/04 01:07:45;;;;;;;9.43;3.83;;;;;;;10.94;64.88;96074.31;2073651;28;20053;-58
2023/06/04 01:08:51;;;;;;;6.90;3.35;;;;;;;10.78;65.43;96056.00;2083206;28;20053;-57
2023/06/04 01:09:52;;;;;;;7.32;3.47;;;;;;;10.74;65.62;96057.03;2091985;28;20055;-58
2023/06/04 01:10:53;;;;;;;6.45;3.78;;;;;;;10.81;66.11;96080.06;2090719;28;20033;-58
2023/06/04 01:11:58;;;;;;;13.05;3.80;;;;;;;10.74;66.08;96070.88;2090026;28;20523;-58
2023/06/04 01:12:59;;;;;;;8.13;3.78;;;;;;;10.67;65.93;96068.66;2099430;28;20461;-58
2023/06/04 01:14:00;;;;;;;6.18;3.40;;;;;;;10.57;66.30;96061.28;2098625;28;20404;-58
2023/06/04 01:15:02;;;;;;;6.75;3.83;;;;;;;10.65;66.20;96080.88;2090607;28;20405;-58
2023/06/04 01:16:04;;;;;;;9.75;3.80;;;;;;;10.50;65.99;96065.06;2081996;28;20046;-58
2023/06/04 01:17:13;;;;;;;8.77;3.88;;;;;;;10.53;66.81;96072.72;2082196;28;20393;-58
2023/06/04 01:18:27;;;;;;;9.80;3.85;;;;;;;10.53;66.83;96084.84;2083459;28;20049;-58
2023/06/04 01:19:33;;;;;;;7.05;3.65;;;;;;;10.50;66.60;96078.03;2083478;28;20137;-58
2023/06/04 01:20:42;;;;;;;6.13;3.10;;;;;;;10.48;67.24;96076.44;2084421;28;20464;-58
2023/06/04 01:21:44;;;;;;;6.95;3.47;;;;;;;10.46;66.83;96079.09;2091981;28;20052;-59
2023/06/04 01:22:51;;;;;;;8.70;3.88;;;;;;;10.46;67.14;96078.28;2089838;28;20057;-58
2023/06/04 01:23:58;;;;;;;7.82;3.40;;;;;;;10.33;67.45;96052.84;2090943;28;20048;-59
2023/06/04 01:25:04;;;;;;;8.40;3.50;;;;;;;10.36;67.55;96073.47;2073473;28;20049;-58
2023/06/04 01:26:05;;;;;;;6.22;3.28;;;;;;;10.38;67.40;96070.81;2069258;28;20054;-58
2023/06/04 01:27:06;;;;;;;5.50;3.40;;;;;;;10.28;67.82;96057.41;2090486;28;20053;-59
2023/06/04 01:28:08;;;;;;;7.70;3.72;;;;;;;10.36;67.25;96073.47;2090089;28;20052;-58
2023/06/04 01:29:09;;;;;;;7.43;3.60;;;;;;;10.33;67.63;96076.22;2090294;28;20074;-59
2023/06/04 01:30:11;;;;;;;5.85;3.72;;;;;;;10.33;68.10;96067.59;2098758;28;20064;-58
2023/06/04 01:31:12;;;;;;;7.63;3.63;;;;;;;10.35;67.28;96074.41;2098686;28;20040;-58
2023/06/04 01:32:14;;;;;;;9.00;3.45;;;;;;;10.32;67.84;96069.34;2082063;28;20052;-57
2023/06/04 01:33:17;;;;;;;7.13;3.35;;;;;;;10.35;68.06;96076.16;2065872;28;20053;-58
2023/06/04 01:34:18;;;;;;;7.55;3.58;;;;;;;10.33;67.65;96081.41;2082460;28;20496;-58
2023/06/04 01:35:20;;;;;;;8.05;3.60;;;;;;;10.30;67.54;96076.34;2099078;28;20056;-58
2023/06/04 01:36:21;;;;;;;6.20;3.50;;;;;;;10.30;67.55;96075.53;2089867;28;20401;-58
2023/06/04 01:37:22;;;;;;;6.57;3.28;;;;;;;10.19;67.46;96060.41;2081624;28;20060;-58
2023/06/04 01:38:23;;;;;;;9.45;3.97;;;;;;;10.23;67.75;96071.47;2089735;28;20060;-58
2023/06/04 01:39:24;;;;;;;6.10;3.50;;;;;;;10.27;67.60;96070.44;2099294;28;20412;-58
2023/06/04 01:40:26;;;;;;;6.53;3.53;;;;;;;10.26;67.76;96079.94;2089559;28;20064;-58
2023/06/04 01:41:27;;;;;;;8.02;3.85;;;;;;;10.15;67.90;96064.84;2090628;28;20056;-57
2023/06/04 01:42:28;;;;;;;5.75;3.25;;;;;;;10.23;67.87;96077.50;2098746;28;20503;-57
2023/06/04 01:43:31;;;;;;;6.07;3.30;;;;;;;10.22;67.99;96083.63;2090089;28;20044;-57
2023/06/04 01:44:32;;;;;;;6.78;3.45;;;;;;;10.19;67.53;96073.38;2089771;28;20067;-57
2023/06/04 01:45:33;;;;;;;9.23;3.85;;;;;;;10.21;67.61;96079.34;2089727;28;20087;-57
2023/06/04 01:46:35;;;;;;;6.15;3.20;;;;;;;10.20;67.96;96080.22;2090179;28;20045;-57
2023/06/04 01:47:36;;;;;;;9.35;3.65;;;;;;;10.10;67.62;96065.97;2099224;28;20052;-57
2023/06/04 01:48:38;;;;;;;6.53;3.38;;;;;;;10.18;67.80;96079.44;2098556;28;20067;-57
2023/06/04 01:49:40;;;;;;;10.43;3.58;;;;;;;10.14;68.51;96075.31;2098400;28;20057;-57
2023/06/04 01:50:41;;;;;;;6.50;3.25;;;;;;;10.15;68.36;96077.00;2099166;28;20465;-57
2023/06/04 01:51:42;;;;;;;10.23;4.03;;;;;;;10.12;68.43;96083.16;2090416;28;20045;-57
2023/06/04 01:52:43;;;;;;;6.57;3.33;;;;;;;10.06;68.29;96072.22;2089889;28;20061;-57
2023/06/04 01:53:44;;;;;;;7.53;3.50;;;;;;;10.14;68.79;96085.69;2089995;28;20416;-57
2023/06/04 01:54:46;;;;;;;6.35;3.55;;;;;;;10.15;68.55;96084.78;2082119;28;20053;-57
2023/06/04 01:55:48;;;;;;;9.52;3.80;;;;;;;10.16;68.81;96094.28;2089878;28;20061;-57
2023/06/04 01:56:50;;;;;;;5.97;3.65;;;;;;;10.18;68.17;96078.63;2089575;28;20053;-57
2023/06/04 01:57:51;;;;;;;7.35;3.95;;;;;;;10.14;67.72;96081.34;2081377;28;20093;-57
2023/06/04 01:58:52;;;;;;;7.00;3.55;;;;;;;10.25;67.80;96080.03;2081841;28;20045;-57
2023/06/04 01:59:53;;;;;;;5.93;3.67;;;;;;;10.31;67.34;96085.81;2090055;28;20057;-57
2023/06/04 02:00:55;;;;;;;11.95;3.38;;;;;;;10.28;67.97;96080.75;2098962;28;20047;-57
2023/06/04 02:01:56;;;;;;;7.10;3.80;;;;;;;10.30;68.00;96091.09;2098958;28;20504;-57
2023/06/04 02:02:59;;;;;;;6.88;3.40;;;;;;;10.14;68.25;96070.13;2098764;28;20052;-57
2023/06/04 02:04:00;;;;;;;7.20;3.17;;;;;;;10.20;67.44;96079.41;2099071;28;20403;-57
2023/06/04 02:05:01;;;;;;;8.23;3.70;;;;;;;10.25;67.42;96086.06;2098359;28;20055;-57
2023/06/04 02:06:04;;;;;;;7.43;4.05;;;;;;;10.25;67.39;96078.28;2089692;28;20063;-57
2023/06/04 02:07:06;;;;;;;4.82;2.78;;;;;;;10.26;67.94;96087.75;2089994;28;20064;-57
2023/06/04 02:08:08;;;;;;;6.28;3.65;;;;;;;10.26;67.25;96087.75;2098183;28;20071;-57
2023/06/04 02:09:10;;;;;;;5.43;3.20;;;;;;;10.29;67.55;96089.38;2098735;28;20052;-57
2023/06/04 02:10:12;;;;;;;8.18;3.55;;;;;;;10.29;67.83;96086.78;2089737;28;20052;-57
2023/06/04 02:11:13;;;;;;;7.32;3.55;;;;;;;10.29;67.77;96084.19;2081209;28;20433;-57
2023/06/04 02:12:14;;;;;;;9.10;3.50;;;;;;;10.28;67.97;96091.16;2081141;28;20061;-57
2023/06/04 02:13:16;;;;;;;7.80;3.33;;;;;;;10.23;67.38;96087.88;2089690;28;20179;-57
2023/06/04 02:14:17;;;;;;;7.85;3.80;;;;;;;10.21;68.31;96092.31;2089967;28;20048;-57
2023/06/04 02:15:18;;;;;;;7.82;3.70;;;;;;;10.15;67.89;96088.22;2089324;28;20515;-57
2023/06/04 02:16:19;;;;;;;6.95;3.50;;;;;;;10.13;67.61;96094.38;2098365;28;20049;-57
2023/06/04 02:17:20;;;;;;;8.13;3.60;;;;;;;10.10;68.22;96087.59;2098273;28;20059;-57
2023/06/04 02:18:22;;;;;;;6.28;3.70;;;;;;;10.07;68.18;96094.66;2098793;28;20429;-57
2023/06/04 02:19:25;;;;;;;7.32;3.60;;;;;;;9.96;68.22;96083.91;2099253;28;20048;-57
2023/06/04 02:20:27;;;;;;;7.00;3.70;;;;;;;10.04;68.74;96095.63;2098794;28;20050;-57
2023/06/04 02:21:28;;;;;;;7.88;3.28;;;;;;;10.05;68.48;96091.28;2098337;28;20108;-57
2023/06/04 02:22:29;;;;;;;7.18;3.55;;;;;;;10.03;68.62;96090.53;2099170;28;20047;-57
2023/06/04 02:23:30;;;;;;;6.68;3.60;;;;;;;10.02;68.63;96096.59;2099062;28;20051;-57
2023/06/04 02:24:31;;;;;;;7.20;3.33;;;;;;;10.02;68.21;96088.81;2099043;28;20498;-57
2023/06/04 02:25:32;;;;;;;7.63;3.92;;;;;;;10.00;68.74;96094.09;2099023;28;20044;-57
2023/06/04 02:26:33;;;;;;;5.85;3.05;;;;;;;9.99;68.87;96094.16;2089196;28;20092;-57
2023/06/04 02:27:35;;;;;;;6.70;3.97;;;;;;;9.95;69.13;96090.84;2081957;28;20064;-57
2023/06/04 02:28:36;;;;;;;7.22;3.47;;;;;;;9.91;69.34;96089.28;2089714;28;20060;-57
2023/06/04 02:29:40;;;;;;;9.85;3.83;;;;;;;9.88;69.31;96082.47;2089377;28;20068;-57
2023/06/04 02:30:42;;;;;;;5.68;3.20;;;;;;;9.91;69.46;96087.53;2081630;28;20133;-57
2023/06/04 02:31:43;;;;;;;5.25;3.08;;;;;;;9.87;68.69;96091.19;2081215;28;20513;-57
2023/06/04 02:32:44;;;;;;;7.15;3.22;;;;;;;9.91;69.24;96099.66;2081192;28;20061;-57
2023/06/04 02:33:45;;;;;;;8.38;3.47;;;;;;;9.87;69.47;96098.97;2089803;28;20060;-56
2023/06/04 02:34:46;;;;;;;6.07;3.22;;;;;;;9.77;69.71;96081.25;2098875;28;20055;-57
2023/06/04 02:35:48;;;;;;;8.02;3.85;;;;;;;9.79;69.58;96087.22;2098182;28;20068;-56
2023/06/04 02:36:50;;;;;;;5.95;3.42;;;;;;;9.81;69.74;96096.63;2089201;28;20500;-57
2023/06/04 02:37:51;;;;;;;7.50;3.53;;;;;;;9.77;69.75;96087.28;2081890;28;20041;-57
2023/06/04 02:38:52;;;;;;;6.28;3.20;;;;;;;9.79;70.18;96101.03;2089260;28;20056;-57
2023/06/04 02:39:53;;;;;;;5.68;3.50;;;;;;;9.80;69.79;96094.09;2098127;28;20060;-57
2023/06/04 02:40:54;;;;;;;7.88;3.42;;;;;;;9.82;70.05;96103.50;2098813;28;20063;-56
2023/06/04 02:41:56;;;;;;;6.43;3.15;;;;;;;9.87;69.91;96090.34;2098194;28;20399;-57
2023/06/04 02:42:57;;;;;;;5.53;2.78;;;;;;;9.96;69.43;96094.28;2098788;28;20048;-57
2023/06/04 02:43:58;;;;;;;5.13;3.10;;;;;;;9.94;68.52;96091.75;2098323;28;20059;-56
2023/06/04 02:44:59;;;;;;;6.70;3.42;;;;;;;9.91;69.07;96091.88;2098204;28;20053;-57
2023/06/04 02:46:00;;;;;;;6.60;3.42;;;;;;;9.89;69.55;96091.97;2098235;28;20048;-57
2023/06/04 02:47:02;;;;;;;6.45;3.53;;;;;;;9.87;69.97;96096.38;2089967;28;20041;-57
2023/06/04 02:48:03;;;;;;;8.30;3.30;;;;;;;9.84;70.12;96088.72;2089026;28;20052;-57
2023/06/04 02:49:05;;;;;;;6.70;3.28;;;;;;;9.79;69.57;96088.06;2089879;28;20041;-57
2023/06/04 02:50:06;;;;;;;8.88;3.55;;;;;;;9.77;69.97;96087.28;2080907;28;20049;-57
2023/06/04 02:51:10;;;;;;;7.35;3.53;;;;;;;9.68;69.94;96072.13;2089363;28;20048;-57
2023/06/04 02:52:11;;;;;;;7.13;3.45;;;;;;;9.77;69.93;96089.03;2089660;28;20033;-57
2023/06/04 02:53:12;;;;;;;7.60;3.55;;;;;;;9.75;70.43;96096.03;2081383;28;20056;-57
2023/06/04 02:54:13;;;;;;;7.70;3.30;;;;;;;9.71;69.98;96095.34;2081301;28;20056;-57
2023/06/04 02:55:14;;;;;;;7.13;3.60;;;;;;;9.63;69.90;96084.44;2089299;28;20464;-56
2023/06/04 02:56:15;;;;;;;7.55;3.38;;;;;;;9.68;70.54;96101.50;2089188;28;20052;-58
2023/06/04 02:57:16;;;;;;;5.90;3.42;;;;;;;9.54;70.23;96080.47;2090009;28;20085;-58
2023/06/04 02:58:18;;;;;;;6.68;3.30;;;;;;;9.63;70.40;96094.81;2098202;28;20051;-58
2023/06/04 02:59:19;;;;;;;6.93;3.63;;;;;;;9.56;70.54;96083.00;2089391;28;20060;-58
2023/06/04 03:00:20;;;;;;;6.55;3.78;;;;;;;9.56;70.50;96088.19;2081509;28;20056;-58
2023/06/04 03:01:24;;;;;;;6.28;3.40;;;;;;;9.63;70.56;96102.59;2081494;28;20045;-58
2023/06/04 03:02:26;;;;;;;9.27;4.05;;;;;;;9.57;70.50;96106.28;2088945;28;20063;-57
2023/06/04 03:03:27;;;;;;;5.80;3.10;;;;;;;9.59;70.70;96113.97;2073591;28;20046;-57
2023/06/04 03:04:33;;;;;;;7.88;3.67;;;;;;;9.60;70.86;96110.50;2081506;28;20516;-57
2023/06/04 03:05:36;;;;;;;7.38;3.42;;;;;;;9.57;70.96;96111.47;2081065;28;20065;-57
2023/06/04 03:06:44;;;;;;;6.78;3.30;;;;;;;9.58;70.92;96112.31;2074572;28;20054;-57
2023/06/04 03:07:45;;;;;;;7.85;3.30;;;;;;;9.43;70.65;96087.84;2090670;28;20049;-57
2023/06/04 03:08:50;;;;;;;6.75;3.50;;;;;;;9.49;71.38;96109.19;2089534;28;20053;-57
2023/06/04 03:09:51;;;;;;;9.10;4.03;;;;;;;9.37;71.01;96088.94;2089150;28;20052;-57
2023/06/04 03:10:52;;;;;;;6.47;3.15;;;;;;;9.40;71.15;96098.34;2098403;28;20039;-57
2023/06/04 03:11:54;;;;;;;6.03;3.67;;;;;;;9.44;70.35;96112.88;2097906;28;20044;-57
2023/06/04 03:12:55;;;;;;;8.93;3.55;;;;;;;9.43;70.97;96109.44;2098439;28;20059;-58
2023/06/04 03:13:56;;;;;;;6.43;3.70;;;;;;;9.45;71.53;96110.22;2089577;28;20060;-58
2023/06/04 03:14:57;;;;;;;5.60;3.08;;;;;;;9.44;71.03;96107.69;2089506;28;20056;-58
2023/06/04 03:16:00;;;;;;;5.18;3.30;;;;;;;9.35;70.81;96095.94;2089579;28;20433;-58
2023/06/04 03:17:07;;;;;;;9.25;4.15;;;;;;;9.43;70.80;96117.19;2088793;28;20059;-58
2023/06/04 03:18:08;;;;;;;6.38;3.75;;;;;;;9.45;71.27;96118.00;2082066;28;20461;-58
2023/06/04 03:19:11;;;;;;;7.15;3.70;;;;;;;9.48;70.50;96109.25;2088634;28;20059;-58
2023/06/04 03:20:12;;;;;;;10.15;3.38;;;;;;;9.47;71.00;96117.94;2089803;28;20072;-58
2023/06/04 03:21:13;;;;;;;6.65;3.30;;;;;;;9.46;71.34;96116.22;2088964;28;20053;-58
2023/06/04 03:22:14;;;;;;;8.23;3.35;;;;;;;9.49;70.98;96110.94;2080679;28;20056;-58
2023/06/04 03:23:15;;;;;;;6.03;3.35;;;;;;;9.51;70.43;96124.66;2089409;28;20477;-58
2023/06/04 03:24:17;;;;;;;6.40;3.45;;;;;;;9.50;70.56;96121.25;2088671;28;20053;-58
2023/06/04 03:25:18;;;;;;;5.90;3.67;;;;;;;9.48;70.30;96115.28;2073164;28;20050;-58
2023/06/04 03:26:19;;;;;;;6.95;3.60;;;;;;;9.53;69.78;96116.84;2072743;28;20058;-58
2023/06/04 03:27:20;;;;;;;6.40;3.30;;;;;;;9.54;70.08;96114.16;2088845;28;20049;-58
2023/06/04 03:28:21;;;;;;;7.07;3.33;;;;;;;9.56;70.29;96116.72;2089437;28;20523;-58
2023/06/04 03:29:22;;;;;;;7.97;3.35;;;;;;;9.54;69.96;96115.94;2089425;28;20049;-58
2023/06/04 03:30:24;;;;;;;5.78;3.30;;;;;;;9.51;70.59;96111.72;2081168;28;20049;-58
2023/06/04 03:31:37;;;;;;;5.97;3.42;;;;;;;9.52;70.11;96116.00;2082543;28;20064;-55
2023/06/04 03:32:38;;;;;;;5.60;3.38;;;;;;;9.52;69.91;96117.75;2089106;28;20068;-55
2023/06/04 03:33:40;;;;;;;6.00;3.45;;;;;;;9.52;70.19;96110.81;2089104;28;20057;-56
2023/06/04 03:34:42;;;;;;;5.50;3.17;;;;;;;9.50;70.10;96118.66;2080801;28;20438;-55
2023/06/04 03:35:43;;;;;;;7.28;3.47;;;;;;;9.48;69.81;96115.28;2081353;28;20464;-55
2023/06/04 03:36:44;;;;;;;5.18;3.40;;;;;;;9.46;70.65;96118.81;2080721;28;20057;-55
2023/06/04 03:37:45;;;;;;;5.53;3.28;;;;;;;9.46;70.50;96117.09;2080745;28;20390;-55
2023/06/04 03:38:47;;;;;;;5.47;3.05;;;;;;;9.46;70.67;96119.69;2080888;28;20061;-56
2023/06/04 03:39:48;;;;;;;6.18;3.47;;;;;;;9.45;70.25;96119.75;2088647;28;20052;-55
2023/06/04 03:40:52;;;;;;;9.82;3.47;;;;;;;9.40;70.19;96114.75;2088832;28;20053;-56
2023/06/04 03:41:55;;;;;;;7.68;3.50;;;;;;;9.47;70.22;96121.38;2080542;28;20476;-56
2023/06/04 03:42:57;;;;;;;9.13;3.17;;;;;;;9.47;70.21;96120.53;2089655;28;20048;-56
2023/06/04 03:44:02;;;;;;;7.35;3.30;;;;;;;9.40;70.52;96109.56;2080921;28;20076;-56
2023/06/04 03:45:06;;;;;;;7.75;3.78;;;;;;;9.50;70.31;96121.25;2080913;28;20049;-56
2023/06/04 03:46:08;;;;;;;9.77;3.75;;;;;;;9.50;69.94;96123.00;2089534;28;20088;-56
2023/06/04 03:47:10;;;;;;;9.73;3.50;;;;;;;9.52;70.46;96117.75;2081275;28;20053;-56
2023/06/04 03:48:11;;;;;;;6.78;3.55;;;;;;;9.58;69.64;96114.91;2081056;28;20049;-55
2023/06/04 03:49:13;;;;;;;8.23;3.13;;;;;;;9.48;69.54;96107.50;2080836;28;20045;-55
2023/06/04 03:50:15;;;;;;;6.07;3.20;;;;;;;9.58;69.71;96118.34;2081135;28;20049;-55
2023/06/04 03:51:17;;;;;;;4.55;2.67;;;;;;;9.60;70.12;96120.88;2081054;28;20048;-56
2023/06/04 03:52:19;;;;;;;5.70;3.08;;;;;;;9.61;69.67;96122.56;2081100;28;20110;-55
2023/06/04 03:53:21;;;;;;;8.68;3.30;;;;;;;9.62;70.06;96125.09;2080416;28;20064;-55
2023/06/04 03:54:22;;;;;;;8.45;3.65;;;;;;;9.62;69.46;96111.25;2080667;28;20121;-56
2023/06/04 03:55:24;;;;;;;7.05;3.30;;;;;;;9.70;69.12;96117.84;2088205;28;20056;-55
2023/06/04 03:56:29;;;;;;;6.28;3.25;;;;;;;9.70;69.94;96123.03;2089158;28;20060;-55
2023/06/04 03:57:30;;;;;;;5.97;3.05;;;;;;;9.70;69.30;96128.22;2088696;28;20456;-55
2023/06/04 03:58:33;;;;;;;5.22;3.08;;;;;;;9.71;69.75;96129.03;2088363;28;20060;-56
2023/06/04 03:59:35;;;;;;;5.25;3.33;;;;;;;9.74;70.15;96128.91;2089558;28;20085;-55
2023/06/04 04:00:36;;;;;;;9.27;3.42;;;;;;;9.75;69.79;96122.81;2088192;28;20057;-55
2023/06/04 04:01:38;;;;;;;4.90;3.17;;;;;;;9.79;68.75;96129.56;2081281;28;20060;-56
2023/06/04 04:02:40;;;;;;;4.22;2.60;;;;;;;9.82;69.10;96123.41;2080232;28;20060;-56
2023/06/04 04:03:42;;;;;;;5.32;3.20;;;;;;;9.86;68.75;96127.53;2080529;28;20535;-56
2023/06/04 04:04:44;;;;;;;7.32;3.85;;;;;;;9.90;68.33;96126.53;2080859;28;20053;-55
2023/06/04 04:05:45;;;;;;;6.32;3.40;;;;;;;9.96;68.05;96128.84;2088683;28;20064;-54
2023/06/04 04:06:46;;;;;;;6.88;3.38;;;;;;;9.95;67.00;96127.19;2097568;28;20075;-56
2023/06/04 04:07:47;;;;;;;5.82;2.95;;;;;;;9.98;67.30;96126.19;2088552;28;20064;-55
2023/06/04 04:08:49;;;;;;;5.07;3.00;;;;;;;10.00;66.93;96124.38;2081219;28;20053;-56
2023/06/04 04:09:52;;;;;;;6.47;3.50;;;;;;;9.93;67.37;96111.66;2080558;28;20060;-56
2023/06/04 04:10:53;;;;;;;6.57;3.10;;;;;;;10.08;66.28;96136.13;2089056;28;20060;-56
2023/06/04 04:11:54;;;;;;;7.13;2.70;;;;;;;10.09;67.14;96130.00;2088964;28;20076;-55
2023/06/04 04:12:57;;;;;;;5.07;2.80;;;;;;;10.13;66.50;96133.31;2088250;28;20049;-56
2023/06/04 04:13:59;;;;;;;8.52;3.08;;;;;;;10.08;66.79;96114.53;2080926;28;20057;-55
2023/06/04 04:15:00;;;;;;;5.25;3.28;;;;;;;10.18;66.44;96127.91;2080852;28;20060;-56
2023/06/04 04:16:02;;;;;;;7.55;3.42;;;;;;;10.21;66.26;96126.06;2088497;28;20146;-56
2023/06/04 04:17:03;;;;;;;6.97;3.17;;;;;;;10.23;66.91;96134.59;2089364;28;20056;-56
2023/06/04 04:18:08;;;;;;;6.95;3.28;;;;;;;10.18;67.01;96118.38;2089174;28;20048;-55
2023/06/04 04:19:09;;;;;;;9.43;3.42;;;;;;;10.29;66.92;96131.78;2080436;28;20046;-56
2023/06/04 04:20:11;;;;;;;8.13;3.25;;;;;;;10.31;66.78;96132.53;2080275;28;20083;-55
2023/06/04 04:21:15;;;;;;;5.22;3.05;;;;;;;10.32;65.42;96125.63;2080137;28;20080;-56
2023/06/04 04:22:19;;;;;;;6.07;3.33;;;;;;;10.34;65.56;96123.78;2080956;28;20045;-55
2023/06/04 04:23:20;;;;;;;7.00;3.08;;;;;;;10.36;65.92;96128.00;2080354;28;20496;-56
2023/06/04 04:24:26;;;;;;;8.80;3.20;;;;;;;10.32;65.92;96116.06;2080626;28;20053;-56
2023/06/04 04:25:32;;;;;;;8.93;3.13;;;;;;;10.44;65.19;96132.00;2081005;28;20053;-55
2023/06/04 04:26:34;;;;;;;4.47;2.90;;;;;;;10.36;66.13;96120.19;2081046;28;20050;-56
2023/06/04 04:27:40;;;;;;;6.93;3.00;;;;;;;10.48;65.22;96142.19;2088761;28;20456;-55
2023/06/04 04:28:43;;;;;;;6.78;3.03;;;;;;;10.54;65.92;96141.06;2081664;28;20145;-55
2023/06/04 04:29:47;;;;;;;3.78;2.72;;;;;;;10.56;65.05;96139.25;2080164;28;20069;-55
2023/06/04 04:30:48;;;;;;;6.13;2.95;;;;;;;10.58;64.81;96134.81;2080933;28;20046;-55
2023/06/04 04:31:56;;;;;;;7.68;3.20;;;;;;;10.60;64.81;96135.59;2080613;28;20053;-55
2023/06/04 04:32:57;;;;;;;7.07;2.97;;;;;;;10.62;64.97;96138.97;2081141;28;20544;-55
2023/06/04 04:34:08;;;;;;;7.55;3.00;;;;;;;10.65;64.81;96144.03;2080948;28;20056;-56
2023/06/04 04:35:11;;;;;;;5.25;3.45;;;;;;;10.63;64.61;96140.66;2081639;28;20046;-56
2023/06/04 04:36:13;;;;;;;5.40;3.10;;;;;;;10.68;64.40;96149.09;2081059;28;20102;-56
2023/06/04 04:37:17;;;;;;;6.53;3.50;;;;;;;10.68;64.11;96145.66;2080441;28;20422;-56
2023/06/04 04:38:21;;;;;;;6.45;2.65;;;;;;;10.72;64.76;96153.25;2088545;28;20144;-56
2023/06/04 04:39:28;;;;;;;6.90;3.03;;;;;;;10.78;64.61;96155.56;2088626;28;20183;-56
2023/06/04 04:40:32;;;;;;;5.93;2.85;;;;;;;10.75;65.12;96153.09;2089154;28;20488;-55
2023/06/04 04:41:34;;;;;;;6.50;2.85;;;;;;;10.73;64.20;96141.09;2080491;28;20069;-56
2023/06/04 04:42:36;;;;;;;5.45;2.80;;;;;;;10.81;64.48;96149.38;2080204;28;20060;-55
2023/06/04 04:43:43;;;;;;;7.68;2.78;;;;;;;10.85;63.99;96150.06;2072280;28;20045;-56
2023/06/04 04:44:51;;;;;;;5.40;3.03;;;;;;;10.85;63.68;96156.09;2082571;28;20096;-56
2023/06/04 04:45:55;;;;;;;7.57;3.28;;;;;;;10.93;63.71;96147.97;2080698;28;20061;-56
2023/06/04 04:46:56;;;;;;;6.25;2.90;;;;;;;10.85;63.93;96139.69;2080165;28;20523;-56
2023/06/04 04:47:57;;;;;;;6.53;3.17;;;;;;;10.97;64.17;96152.13;2081081;28;20061;-56
2023/06/04 04:48:58;;;;;;;5.72;2.92;;;;;;;10.93;63.21;96142.75;2080739;28;20049;-55
2023/06/04 04:49:59;;;;;;;5.18;3.35;;;;;;;10.98;62.87;96153.78;2080213;28;20053;-56
2023/06/04 04:51:01;;;;;;;5.63;2.95;;;;;;;11.01;63.14;96156.25;2080906;28;20041;-55
2023/06/04 04:52:02;;;;;;;4.63;2.60;;;;;;;11.03;63.29;96159.63;2080370;28;20097;-56
2023/06/04 04:53:04;;;;;;;5.13;2.50;;;;;;;11.07;62.40;96160.34;2080861;28;20050;-56
2023/06/04 04:54:06;;;;;;;7.82;3.10;;;;;;;11.12;62.42;96161.81;2080856;28;20052;-56